createdAt,value
2023-01-20T00:04:25.171Z,10.21
2023-01-20T00:10:26.885Z,10.07
2023-01-20T00:16:32.422Z,10.50
2023-01-20T00:22:34.393Z,10.30
2023-01-20T00:28:37.018Z,9.81
2023-01-20T00:34:39.482Z,9.95
2023-01-20T00:40:41.970Z,10.32
2023-01-20T00:46:44.682Z,10.44
2023-01-20T00:52:46.877Z,10.40
2023-01-20T00:58:49.325Z,10.19
2023-01-20T01:04:51.794Z,10.24
2023-01-20T01:10:58.280Z,10.49
2023-01-20T01:17:03.749Z,10.30
2023-01-20T01:23:06.219Z,9.81
2023-01-20T01:29:08.704Z,10.37
2023-01-20T01:35:14.348Z,10.40
2023-01-20T01:41:18.661Z,10.61
2023-01-20T01:47:24.133Z,10.39
2023-01-20T01:53:28.589Z,10.21
2023-01-20T01:59:34.066Z,9.50
2023-01-20T02:05:39.656Z,10.38
2023-01-20T02:11:49.067Z,9.14
2023-01-20T02:18:20.641Z,10.01
2023-01-20T02:24:38.155Z,8.86
2023-01-20T02:31:17.802Z,8.90
2023-01-20T02:37:25.227Z,9.44
2023-01-20T02:43:49.825Z,8.97
2023-01-20T02:50:00.297Z,9.47
2023-01-20T02:56:02.741Z,9.16
2023-01-20T03:02:14.249Z,9.15
2023-01-20T03:08:17.531Z,8.57
2023-01-20T03:14:19.535Z,8.95
2023-01-20T03:20:24.677Z,9.07
2023-01-20T03:26:28.130Z,9.23
2023-01-20T03:32:32.603Z,8.77
2023-01-20T03:38:34.428Z,8.64
2023-01-20T03:45:13.921Z,9.35
2023-01-20T03:51:30.224Z,9.30
2023-01-20T03:58:04.996Z,8.49
2023-01-20T04:04:11.720Z,9.36
2023-01-20T04:10:16.736Z,8.94
2023-01-20T04:16:21.188Z,8.58
2023-01-20T04:22:35.692Z,8.76
2023-01-20T04:28:38.141Z,9.24
2023-01-20T04:34:40.663Z,9.00
2023-01-20T04:40:43.106Z,8.73
2023-01-20T04:46:46.546Z,8.25
2023-01-20T04:52:49.021Z,8.17
2023-01-20T04:58:51.468Z,8.19
2023-01-20T05:04:53.962Z,7.91
2023-01-20T05:10:56.417Z,8.43
2023-01-20T05:16:58.850Z,8.70
2023-01-20T05:23:01.612Z,8.74
2023-01-20T05:29:04.787Z,8.70
2023-01-20T05:35:08.241Z,8.09
2023-01-20T05:41:10.694Z,8.03
2023-01-20T05:47:16.177Z,8.11
2023-01-20T05:53:18.365Z,8.47
2023-01-20T05:59:20.221Z,8.21
2023-01-20T06:05:23.576Z,7.69
2023-01-20T06:11:26.027Z,8.11
2023-01-20T06:17:28.571Z,7.80
2023-01-20T06:23:31.008Z,7.74
2023-01-20T06:29:37.533Z,8.31
2023-01-20T06:35:39.967Z,8.18
2023-01-20T06:41:41.782Z,7.72
2023-01-20T06:47:43.941Z,7.75
2023-01-20T06:53:48.409Z,7.88
2023-01-20T06:59:50.868Z,6.50
2023-01-20T07:06:18.416Z,7.48
2023-01-20T07:12:20.905Z,7.29
2023-01-20T07:18:26.380Z,7.53
2023-01-20T07:24:28.823Z,7.34
2023-01-20T07:30:31.347Z,6.70
2023-01-20T07:36:33.768Z,7.11
2023-01-20T07:42:39.247Z,7.14
2023-01-20T07:48:43.538Z,7.12
2023-01-20T07:54:46.224Z,7.11
2023-01-20T08:00:50.700Z,5.88
2023-01-20T08:06:56.763Z,6.94
2023-01-20T08:13:02.277Z,6.78
2023-01-20T08:19:58.267Z,6.75
2023-01-20T08:26:30.846Z,6.71
2023-01-20T08:32:35.011Z,6.58
2023-01-20T08:38:39.783Z,6.79
2023-01-20T08:44:55.288Z,6.54
2023-01-20T08:51:21.878Z,6.77
2023-01-20T08:57:37.241Z,6.90
2023-01-20T09:03:42.056Z,7.01
2023-01-20T09:09:49.284Z,6.31
2023-01-20T09:16:39.708Z,6.99
2023-01-20T09:22:43.448Z,6.93
2023-01-20T09:28:46.146Z,6.78
2023-01-20T09:34:50.543Z,6.65
2023-01-20T09:41:32.902Z,6.98
2023-01-20T09:47:48.381Z,6.75
2023-01-20T09:53:56.221Z,7.17
2023-01-20T10:00:16.066Z,6.97
2023-01-20T10:06:26.507Z,7.10
2023-01-20T10:12:37.626Z,5.92
2023-01-20T10:18:56.148Z,6.76
2023-01-20T10:25:13.687Z,6.99
2023-01-20T10:31:23.383Z,6.53
2023-01-20T10:37:35.729Z,6.34
2023-01-20T10:43:51.052Z,6.62
2023-01-20T10:50:19.878Z,6.86
2023-01-20T10:56:54.493Z,6.91
2023-01-20T11:03:11.106Z,6.51
2023-01-20T11:09:40.392Z,6.32
2023-01-20T11:15:49.110Z,6.20
2023-01-20T11:22:15.835Z,6.15
2023-01-20T11:28:55.326Z,6.13
2023-01-20T11:35:19.833Z,6.16
2023-01-20T11:41:39.064Z,6.15
2023-01-20T11:47:41.392Z,5.85
2023-01-20T11:53:44.476Z,5.37
2023-01-20T12:00:04.835Z,5.49
2023-01-20T12:07:03.347Z,5.77
2023-01-20T12:13:29.137Z,5.58
2023-01-20T12:19:49.665Z,5.53
2023-01-20T12:26:15.229Z,5.52
2023-01-20T12:32:48.858Z,5.52
2023-01-20T12:39:52.573Z,5.40
2023-01-20T12:46:22.141Z,5.35
2023-01-20T12:52:48.746Z,5.29
2023-01-20T12:58:51.216Z,5.21
2023-01-20T13:05:03.693Z,4.57
2023-01-20T13:11:42.258Z,5.06
2023-01-20T13:18:25.946Z,4.88
2023-01-20T13:24:35.409Z,4.97
2023-01-20T13:30:37.978Z,4.92
2023-01-20T13:37:14.512Z,4.89
2023-01-20T13:43:47.954Z,4.68
2023-01-20T13:50:23.138Z,5.02
2023-01-20T13:56:38.085Z,5.03
2023-01-20T14:03:05.744Z,5.02
2023-01-20T14:09:30.305Z,4.71
2023-01-20T14:15:37.865Z,4.59
2023-01-20T14:21:44.144Z,4.11
2023-01-20T14:27:46.717Z,4.01
2023-01-20T14:33:52.205Z,4.42
2023-01-20T14:39:57.683Z,4.20
2023-01-20T14:46:01.150Z,4.17
2023-01-20T14:52:05.583Z,4.27
2023-01-20T14:58:10.100Z,4.12
2023-01-20T15:04:13.516Z,4.00
2023-01-20T15:10:19.035Z,4.31
2023-01-20T15:16:47.625Z,4.14
2023-01-20T15:22:52.035Z,3.77
2023-01-20T15:28:55.502Z,4.64
2023-01-20T15:34:58.174Z,4.72
2023-01-20T15:41:01.433Z,4.55
2023-01-20T15:47:31.996Z,4.83
2023-01-20T15:53:35.529Z,4.50
2023-01-20T15:59:37.920Z,4.42
2023-01-20T16:05:40.389Z,4.53
2023-01-20T16:11:42.835Z,4.52
2023-01-20T16:17:45.329Z,4.34
2023-01-20T16:23:47.752Z,4.09
2023-01-20T16:29:51.212Z,4.16
2023-01-20T16:35:55.733Z,4.27
2023-01-20T16:41:58.147Z,3.42
2023-01-20T16:48:00.047Z,4.02
2023-01-20T16:54:02.118Z,4.18
2023-01-20T17:00:09.513Z,4.33
2023-01-20T17:06:17.963Z,4.40
2023-01-20T17:12:20.009Z,4.42
2023-01-20T17:18:21.903Z,4.52
2023-01-20T17:24:24.414Z,3.88
2023-01-20T17:30:27.039Z,3.74
2023-01-20T17:36:31.347Z,3.60
2023-01-20T17:42:33.821Z,4.52
2023-01-20T17:48:36.322Z,4.21
2023-01-20T17:54:38.713Z,3.96
2023-01-20T18:00:41.156Z,4.13
2023-01-20T18:06:43.631Z,3.87
2023-01-20T18:12:46.090Z,4.38
2023-01-20T18:18:49.566Z,4.28
2023-01-20T18:24:52.028Z,3.35
2023-01-20T18:31:09.688Z,4.16
2023-01-20T18:37:11.991Z,3.97
2023-01-20T18:43:14.433Z,4.61
2023-01-20T18:49:17.923Z,4.63
2023-01-20T18:55:20.406Z,4.35
2023-01-20T19:01:25.853Z,4.44
2023-01-20T19:07:28.287Z,4.10
2023-01-20T19:13:30.742Z,3.90
2023-01-20T19:19:33.207Z,4.58
2023-01-20T19:25:35.672Z,4.63
2023-01-20T19:31:40.240Z,4.01
2023-01-20T19:37:44.607Z,4.15
2023-01-20T19:43:47.131Z,3.81
2023-01-20T19:49:52.561Z,3.93
2023-01-20T19:56:02.050Z,3.85
2023-01-20T20:02:04.489Z,2.82
2023-01-20T20:08:06.953Z,4.41
2023-01-20T20:14:12.435Z,3.58
2023-01-20T20:20:16.143Z,4.00
2023-01-20T20:26:19.340Z,4.08
2023-01-20T20:32:21.809Z,3.76
2023-01-20T20:38:24.240Z,4.57
2023-01-20T20:44:26.703Z,4.51
2023-01-20T20:50:29.740Z,4.15
2023-01-20T20:56:32.654Z,4.52
2023-01-20T21:02:35.113Z,4.31
2023-01-20T21:08:38.541Z,4.66
2023-01-20T21:14:40.979Z,4.66
2023-01-20T21:20:43.453Z,4.62
2023-01-20T21:26:45.914Z,4.31
2023-01-20T21:32:48.439Z,4.65
2023-01-20T21:38:51.863Z,4.63
2023-01-20T21:44:54.332Z,3.84
2023-01-20T21:51:14.882Z,3.83
2023-01-20T21:57:17.296Z,3.94
2023-01-20T22:03:19.738Z,4.28
2023-01-20T22:09:22.224Z,3.78
2023-01-20T22:15:24.672Z,3.87
2023-01-20T22:21:28.154Z,4.28
2023-01-20T22:27:33.591Z,4.21
2023-01-20T22:33:36.035Z,4.14
2023-01-20T22:39:38.490Z,3.83
2023-01-20T22:45:42.020Z,4.64
2023-01-20T22:51:44.433Z,3.96
2023-01-20T22:57:46.871Z,4.30
2023-01-20T23:03:51.282Z,3.68
2023-01-20T23:09:53.863Z,4.33
2023-01-20T23:15:56.077Z,3.62
2023-01-20T23:21:58.270Z,3.78
2023-01-20T23:28:00.238Z,4.49
2023-01-20T23:34:02.694Z,4.14
2023-01-20T23:40:05.136Z,4.00
2023-01-20T23:46:07.910Z,4.02
2023-01-20T23:52:10.041Z,3.36
2023-01-20T23:58:12.495Z,3.91
